sensor_id;sensor_type;location;lat;lon;timestamp;P1;durP1;ratioP1;P2;durP2;ratioP2
19643;SDS011;9970;-36.854;174.870;2022-11-30T00:01:14;12.93;;;12.73;;
19643;SDS011;9970;-36.854;174.870;2022-11-30T00:03:54;12.60;;;12.50;;
19643;SDS011;9970;-36.854;174.870;2022-11-30T00:06:27;13.30;;;13.10;;
19643;SDS011;9970;-36.854;174.870;2022-11-30T00:09:00;11.53;;;11.43;;
19643;SDS011;9970;-36.854;174.870;2022-11-30T00:11:33;13.20;;;13.00;;
19643;SDS011;9970;-36.854;174.870;2022-11-30T00:14:06;12.93;;;12.73;;
19643;SDS011;9970;-36.854;174.870;2022-11-30T00:16:39;12.40;;;12.30;;
19643;SDS011;9970;-36.854;174.870;2022-11-30T00:19:12;11.30;;;11.20;;
19643;SDS011;9970;-36.854;174.870;2022-11-30T00:21:45;11.80;;;11.70;;
19643;SDS011;9970;-36.854;174.870;2022-11-30T00:24:18;10.40;;;10.30;;
19643;SDS011;9970;-36.854;174.870;2022-11-30T00:26:51;9.90;;;9.80;;
19643;SDS011;9970;-36.854;174.870;2022-11-30T00:29:24;9.93;;;9.83;;
19643;SDS011;9970;-36.854;174.870;2022-11-30T00:31:57;10.00;;;9.90;;
19643;SDS011;9970;-36.854;174.870;2022-11-30T00:34:30;9.93;;;9.83;;
19643;SDS011;9970;-36.854;174.870;2022-11-30T00:37:03;9.70;;;9.60;;
19643;SDS011;9970;-36.854;174.870;2022-11-30T00:39:36;10.50;;;10.40;;
19643;SDS011;9970;-36.854;174.870;2022-11-30T00:42:09;10.50;;;10.40;;
19643;SDS011;9970;-36.854;174.870;2022-11-30T00:44:42;10.67;;;10.57;;
19643;SDS011;9970;-36.854;174.870;2022-11-30T00:47:15;11.60;;;11.50;;
19643;SDS011;9970;-36.854;174.870;2022-11-30T00:49:48;10.70;;;10.60;;
19643;SDS011;9970;-36.854;174.870;2022-11-30T00:52:21;10.30;;;10.20;;
19643;SDS011;9970;-36.854;174.870;2022-11-30T00:54:54;10.40;;;10.30;;
19643;SDS011;9970;-36.854;174.870;2022-11-30T00:57:28;8.90;;;8.80;;
19643;SDS011;9970;-36.854;174.870;2022-11-30T01:00:01;7.00;;;7.00;;
19643;SDS011;9970;-36.854;174.870;2022-11-30T01:02:34;7.60;;;7.60;;
19643;SDS011;9970;-36.854;174.870;2022-11-30T01:05:16;7.40;;;7.40;;
19643;SDS011;9970;-36.854;174.870;2022-11-30T01:07:50;7.47;;;7.47;;
19643;SDS011;9970;-36.854;174.870;2022-11-30T01:10:23;6.80;;;6.80;;
19643;SDS011;9970;-36.854;174.870;2022-11-30T01:12:55;6.70;;;6.70;;
19643;SDS011;9970;-36.854;174.870;2022-11-30T01:15:29;7.60;;;7.60;;
19643;SDS011;9970;-36.854;174.870;2022-11-30T01:18:04;7.37;;;7.37;;
19643;SDS011;9970;-36.854;174.870;2022-11-30T01:20:40;6.60;;;6.60;;
19643;SDS011;9970;-36.854;174.870;2022-11-30T01:23:13;7.43;;;7.43;;
19643;SDS011;9970;-36.854;174.870;2022-11-30T01:25:53;7.90;;;7.90;;
19643;SDS011;9970;-36.854;174.870;2022-11-30T01:28:26;7.60;;;7.60;;
19643;SDS011;9970;-36.854;174.870;2022-11-30T01:31:00;7.40;;;7.40;;
19643;SDS011;9970;-36.854;174.870;2022-11-30T01:33:34;11.53;;;11.43;;
19643;SDS011;9970;-36.854;174.870;2022-11-30T01:36:11;8.50;;;8.40;;
19643;SDS011;9970;-36.854;174.870;2022-11-30T01:38:46;8.20;;;8.10;;
19643;SDS011;9970;-36.854;174.870;2022-11-30T01:41:23;8.67;;;8.57;;
19643;SDS011;9970;-36.854;174.870;2022-11-30T01:46:41;7.60;;;7.50;;
19643;SDS011;9970;-36.854;174.870;2022-11-30T01:49:22;7.40;;;7.40;;
19643;SDS011;9970;-36.854;174.870;2022-11-30T01:54:53;7.50;;;7.50;;
19643;SDS011;9970;-36.854;174.870;2022-11-30T01:57:33;7.50;;;7.50;;
19643;SDS011;9970;-36.854;174.870;2022-11-30T02:00:03;7.47;;;7.47;;
19643;SDS011;9970;-36.854;174.870;2022-11-30T02:05:39;8.67;;;8.57;;
19643;SDS011;9970;-36.854;174.870;2022-11-30T02:08:13;8.70;;;8.60;;
19643;SDS011;9970;-36.854;174.870;2022-11-30T02:10:51;9.70;;;9.60;;
19643;SDS011;9970;-36.854;174.870;2022-11-30T02:16:07;8.30;;;8.20;;
19643;SDS011;9970;-36.854;174.870;2022-11-30T02:24:34;10.70;;;10.60;;
19643;SDS011;9970;-36.854;174.870;2022-11-30T02:30:10;10.13;;;10.03;;
19643;SDS011;9970;-36.854;174.870;2022-11-30T02:32:48;10.13;;;10.03;;
19643;SDS011;9970;-36.854;174.870;2022-11-30T02:35:23;11.20;;;11.10;;
19643;SDS011;9970;-36.854;174.870;2022-11-30T02:37:57;11.93;;;11.83;;
19643;SDS011;9970;-36.854;174.870;2022-11-30T02:40:32;11.20;;;11.10;;
19643;SDS011;9970;-36.854;174.870;2022-11-30T02:43:05;12.27;;;12.17;;
19643;SDS011;9970;-36.854;174.870;2022-11-30T02:48:31;14.53;;;14.33;;
19643;SDS011;9970;-36.854;174.870;2022-11-30T02:51:11;13.30;;;13.10;;
19643;SDS011;9970;-36.854;174.870;2022-11-30T02:53:45;13.40;;;13.20;;
19643;SDS011;9970;-36.854;174.870;2022-11-30T02:56:23;14.10;;;13.90;;
19643;SDS011;9970;-36.854;174.870;2022-11-30T02:58:57;14.20;;;14.00;;
19643;SDS011;9970;-36.854;174.870;2022-11-30T03:01:30;16.10;;;15.80;;
19643;SDS011;9970;-36.854;174.870;2022-11-30T03:04:03;15.93;;;15.63;;
19643;SDS011;9970;-36.854;174.870;2022-11-30T03:06:37;15.20;;;14.90;;
19643;SDS011;9970;-36.854;174.870;2022-11-30T03:09:09;15.00;;;14.80;;
19643;SDS011;9970;-36.854;174.870;2022-11-30T03:11:42;14.80;;;14.60;;
19643;SDS011;9970;-36.854;174.870;2022-11-30T03:14:15;16.20;;;15.90;;
19643;SDS011;9970;-36.854;174.870;2022-11-30T03:16:49;15.90;;;15.60;;
19643;SDS011;9970;-36.854;174.870;2022-11-30T03:19:22;15.97;;;15.67;;
19643;SDS011;9970;-36.854;174.870;2022-11-30T03:21:55;16.57;;;16.27;;
19643;SDS011;9970;-36.854;174.870;2022-11-30T03:24:28;15.60;;;15.30;;
19643;SDS011;9970;-36.854;174.870;2022-11-30T03:27:01;16.17;;;15.87;;
19643;SDS011;9970;-36.854;174.870;2022-11-30T03:29:34;17.50;;;17.20;;
19643;SDS011;9970;-36.854;174.870;2022-11-30T03:32:07;18.00;;;17.60;;
19643;SDS011;9970;-36.854;174.870;2022-11-30T03:34:41;18.13;;;17.73;;
19643;SDS011;9970;-36.854;174.870;2022-11-30T03:37:14;18.20;;;17.80;;
19643;SDS011;9970;-36.854;174.870;2022-11-30T03:39:47;17.80;;;17.40;;
19643;SDS011;9970;-36.854;174.870;2022-11-30T03:42:24;19.03;;;18.63;;
19643;SDS011;9970;-36.854;174.870;2022-11-30T03:44:57;17.20;;;16.90;;
19643;SDS011;9970;-36.854;174.870;2022-11-30T03:47:30;18.57;;;18.17;;
19643;SDS011;9970;-36.854;174.870;2022-11-30T03:50:03;18.60;;;18.20;;
19643;SDS011;9970;-36.854;174.870;2022-11-30T03:52:37;18.70;;;18.30;;
19643;SDS011;9970;-36.854;174.870;2022-11-30T03:55:10;17.90;;;17.50;;
19643;SDS011;9970;-36.854;174.870;2022-11-30T03:57:44;18.40;;;18.00;;
19643;SDS011;9970;-36.854;174.870;2022-11-30T04:00:17;18.73;;;18.33;;
19643;SDS011;9970;-36.854;174.870;2022-11-30T04:02:51;18.00;;;17.60;;
19643;SDS011;9970;-36.854;174.870;2022-11-30T04:05:23;18.20;;;17.80;;
19643;SDS011;9970;-36.854;174.870;2022-11-30T04:07:57;17.80;;;17.40;;
19643;SDS011;9970;-36.854;174.870;2022-11-30T04:10:30;17.80;;;17.40;;
19643;SDS011;9970;-36.854;174.870;2022-11-30T04:13:03;16.80;;;16.50;;
19643;SDS011;9970;-36.854;174.870;2022-11-30T04:15:36;16.50;;;16.20;;
19643;SDS011;9970;-36.854;174.870;2022-11-30T04:18:09;16.10;;;15.80;;
19643;SDS011;9970;-36.854;174.870;2022-11-30T04:20:42;15.70;;;15.40;;
19643;SDS011;9970;-36.854;174.870;2022-11-30T04:23:16;15.70;;;15.40;;
19643;SDS011;9970;-36.854;174.870;2022-11-30T04:25:49;16.00;;;15.70;;
19643;SDS011;9970;-36.854;174.870;2022-11-30T04:28:22;15.70;;;15.40;;
19643;SDS011;9970;-36.854;174.870;2022-11-30T04:30:55;15.87;;;15.57;;
19643;SDS011;9970;-36.854;174.870;2022-11-30T04:33:29;15.40;;;15.10;;
19643;SDS011;9970;-36.854;174.870;2022-11-30T04:36:03;14.80;;;14.60;;
19643;SDS011;9970;-36.854;174.870;2022-11-30T04:38:37;14.73;;;14.53;;
19643;SDS011;9970;-36.854;174.870;2022-11-30T04:41:10;14.40;;;14.20;;
19643;SDS011;9970;-36.854;174.870;2022-11-30T04:43:43;14.40;;;14.20;;
19643;SDS011;9970;-36.854;174.870;2022-11-30T04:46:16;14.60;;;14.40;;
19643;SDS011;9970;-36.854;174.870;2022-11-30T04:48:49;15.50;;;15.20;;
19643;SDS011;9970;-36.854;174.870;2022-11-30T04:51:23;15.27;;;15.00;;
19643;SDS011;9970;-36.854;174.870;2022-11-30T04:53:56;15.40;;;15.10;;
19643;SDS011;9970;-36.854;174.870;2022-11-30T04:56:29;15.00;;;14.80;;
19643;SDS011;9970;-36.854;174.870;2022-11-30T04:59:02;15.40;;;15.10;;
19643;SDS011;9970;-36.854;174.870;2022-11-30T05:01:35;15.30;;;15.00;;
19643;SDS011;9970;-36.854;174.870;2022-11-30T05:04:12;15.00;;;14.73;;
19643;SDS011;9970;-36.854;174.870;2022-11-30T05:06:45;15.70;;;15.40;;
19643;SDS011;9970;-36.854;174.870;2022-11-30T05:09:18;15.80;;;15.50;;
19643;SDS011;9970;-36.854;174.870;2022-11-30T05:11:51;16.57;;;16.27;;
19643;SDS011;9970;-36.854;174.870;2022-11-30T05:14:24;17.33;;;17.03;;
19643;SDS011;9970;-36.854;174.870;2022-11-30T05:16:58;17.00;;;16.70;;
19643;SDS011;9970;-36.854;174.870;2022-11-30T05:19:35;16.47;;;16.17;;
19643;SDS011;9970;-36.854;174.870;2022-11-30T05:22:08;17.10;;;16.80;;
19643;SDS011;9970;-36.854;174.870;2022-11-30T05:24:41;17.20;;;16.90;;
19643;SDS011;9970;-36.854;174.870;2022-11-30T05:27:15;17.40;;;17.10;;
19643;SDS011;9970;-36.854;174.870;2022-11-30T05:29:55;15.97;;;15.67;;
19643;SDS011;9970;-36.854;174.870;2022-11-30T05:32:28;16.10;;;15.80;;
19643;SDS011;9970;-36.854;174.870;2022-11-30T05:35:01;15.50;;;15.20;;
19643;SDS011;9970;-36.854;174.870;2022-11-30T05:37:34;15.57;;;15.27;;
19643;SDS011;9970;-36.854;174.870;2022-11-30T05:40:08;16.00;;;15.70;;
19643;SDS011;9970;-36.854;174.870;2022-11-30T05:42:41;16.33;;;16.03;;
19643;SDS011;9970;-36.854;174.870;2022-11-30T05:45:14;16.63;;;16.33;;
19643;SDS011;9970;-36.854;174.870;2022-11-30T05:47:47;16.40;;;16.10;;
19643;SDS011;9970;-36.854;174.870;2022-11-30T05:50:20;17.00;;;16.70;;
19643;SDS011;9970;-36.854;174.870;2022-11-30T05:52:53;16.77;;;16.47;;
19643;SDS011;9970;-36.854;174.870;2022-11-30T05:55:27;17.00;;;16.70;;
19643;SDS011;9970;-36.854;174.870;2022-11-30T05:58:01;16.80;;;16.50;;
19643;SDS011;9970;-36.854;174.870;2022-11-30T06:00:34;16.10;;;15.80;;
19643;SDS011;9970;-36.854;174.870;2022-11-30T06:03:07;16.40;;;16.10;;
19643;SDS011;9970;-36.854;174.870;2022-11-30T06:05:45;16.60;;;16.30;;
19643;SDS011;9970;-36.854;174.870;2022-11-30T06:08:15;16.30;;;16.00;;
19643;SDS011;9970;-36.854;174.870;2022-11-30T06:10:48;15.40;;;15.10;;
19643;SDS011;9970;-36.854;174.870;2022-11-30T06:13:22;15.70;;;15.40;;
19643;SDS011;9970;-36.854;174.870;2022-11-30T06:15:57;15.70;;;15.40;;
19643;SDS011;9970;-36.854;174.870;2022-11-30T06:18:32;15.63;;;15.33;;
19643;SDS011;9970;-36.854;174.870;2022-11-30T06:21:07;15.07;;;14.83;;
19643;SDS011;9970;-36.854;174.870;2022-11-30T06:23:41;15.60;;;15.30;;
19643;SDS011;9970;-36.854;174.870;2022-11-30T06:26:14;16.20;;;15.90;;
19643;SDS011;9970;-36.854;174.870;2022-11-30T06:28:47;15.77;;;15.47;;
19643;SDS011;9970;-36.854;174.870;2022-11-30T06:31:21;15.37;;;15.10;;
19643;SDS011;9970;-36.854;174.870;2022-11-30T06:33:56;15.30;;;15.00;;
19643;SDS011;9970;-36.854;174.870;2022-11-30T06:36:30;15.67;;;15.37;;
19643;SDS011;9970;-36.854;174.870;2022-11-30T06:39:03;15.67;;;15.37;;
19643;SDS011;9970;-36.854;174.870;2022-11-30T06:41:37;16.10;;;15.80;;
19643;SDS011;9970;-36.854;174.870;2022-11-30T06:44:10;16.60;;;16.30;;
19643;SDS011;9970;-36.854;174.870;2022-11-30T06:46:43;15.10;;;14.90;;
19643;SDS011;9970;-36.854;174.870;2022-11-30T06:49:16;15.97;;;15.67;;
19643;SDS011;9970;-36.854;174.870;2022-11-30T06:51:49;16.03;;;15.73;;
19643;SDS011;9970;-36.854;174.870;2022-11-30T06:54:22;15.90;;;15.60;;
19643;SDS011;9970;-36.854;174.870;2022-11-30T06:56:55;15.40;;;15.10;;
19643;SDS011;9970;-36.854;174.870;2022-11-30T06:59:28;14.60;;;14.40;;
19643;SDS011;9970;-36.854;174.870;2022-11-30T07:02:05;15.30;;;15.00;;
19643;SDS011;9970;-36.854;174.870;2022-11-30T07:04:45;14.30;;;14.10;;
19643;SDS011;9970;-36.854;174.870;2022-11-30T07:07:18;15.03;;;14.83;;
19643;SDS011;9970;-36.854;174.870;2022-11-30T07:09:51;15.03;;;14.83;;
19643;SDS011;9970;-36.854;174.870;2022-11-30T07:12:25;14.90;;;14.70;;
19643;SDS011;9970;-36.854;174.870;2022-11-30T07:14:58;14.70;;;14.50;;
19643;SDS011;9970;-36.854;174.870;2022-11-30T07:17:31;14.90;;;14.70;;
19643;SDS011;9970;-36.854;174.870;2022-11-30T07:20:04;15.00;;;14.80;;
19643;SDS011;9970;-36.854;174.870;2022-11-30T07:22:38;14.77;;;14.57;;
19643;SDS011;9970;-36.854;174.870;2022-11-30T07:25:12;15.10;;;14.90;;
19643;SDS011;9970;-36.854;174.870;2022-11-30T07:28:07;15.13;;;14.90;;
19643;SDS011;9970;-36.854;174.870;2022-11-30T07:30:40;15.23;;;14.93;;
19643;SDS011;9970;-36.854;174.870;2022-11-30T07:33:13;14.63;;;14.43;;
19643;SDS011;9970;-36.854;174.870;2022-11-30T07:35:49;15.03;;;14.80;;
19643;SDS011;9970;-36.854;174.870;2022-11-30T07:38:29;15.00;;;14.80;;
19643;SDS011;9970;-36.854;174.870;2022-11-30T07:41:02;14.30;;;14.10;;
19643;SDS011;9970;-36.854;174.870;2022-11-30T07:43:35;14.20;;;14.00;;
19643;SDS011;9970;-36.854;174.870;2022-11-30T07:46:13;13.80;;;13.60;;
19643;SDS011;9970;-36.854;174.870;2022-11-30T07:48:43;13.87;;;13.67;;
19643;SDS011;9970;-36.854;174.870;2022-11-30T07:51:19;13.70;;;13.50;;
19643;SDS011;9970;-36.854;174.870;2022-11-30T07:53:59;13.33;;;13.13;;
19643;SDS011;9970;-36.854;174.870;2022-11-30T07:56:28;15.00;;;14.80;;
19643;SDS011;9970;-36.854;174.870;2022-11-30T07:59:01;14.20;;;14.00;;
19643;SDS011;9970;-36.854;174.870;2022-11-30T08:01:34;14.40;;;14.20;;
19643;SDS011;9970;-36.854;174.870;2022-11-30T08:04:07;14.10;;;13.90;;
19643;SDS011;9970;-36.854;174.870;2022-11-30T08:06:42;13.80;;;13.60;;
19643;SDS011;9970;-36.854;174.870;2022-11-30T08:09:15;14.03;;;13.83;;
19643;SDS011;9970;-36.854;174.870;2022-11-30T08:11:48;13.80;;;13.60;;
19643;SDS011;9970;-36.854;174.870;2022-11-30T08:14:21;14.20;;;14.00;;
19643;SDS011;9970;-36.854;174.870;2022-11-30T08:16:54;14.20;;;14.00;;
19643;SDS011;9970;-36.854;174.870;2022-11-30T08:19:27;14.50;;;14.30;;
19643;SDS011;9970;-36.854;174.870;2022-11-30T08:22:00;14.03;;;13.83;;
19643;SDS011;9970;-36.854;174.870;2022-11-30T08:24:34;13.93;;;13.73;;
19643;SDS011;9970;-36.854;174.870;2022-11-30T08:27:07;14.07;;;13.87;;
19643;SDS011;9970;-36.854;174.870;2022-11-30T08:29:40;13.90;;;13.70;;
19643;SDS011;9970;-36.854;174.870;2022-11-30T08:32:13;14.40;;;14.20;;
19643;SDS011;9970;-36.854;174.870;2022-11-30T08:34:46;14.30;;;14.10;;
19643;SDS011;9970;-36.854;174.870;2022-11-30T08:37:19;14.60;;;14.40;;
19643;SDS011;9970;-36.854;174.870;2022-11-30T08:39:52;14.40;;;14.20;;
19643;SDS011;9970;-36.854;174.870;2022-11-30T08:42:25;14.40;;;14.20;;
19643;SDS011;9970;-36.854;174.870;2022-11-30T08:44:59;14.97;;;14.77;;
19643;SDS011;9970;-36.854;174.870;2022-11-30T08:47:32;14.10;;;13.90;;
19643;SDS011;9970;-36.854;174.870;2022-11-30T08:50:05;13.60;;;13.40;;
19643;SDS011;9970;-36.854;174.870;2022-11-30T08:52:38;13.70;;;13.50;;
19643;SDS011;9970;-36.854;174.870;2022-11-30T08:55:11;13.60;;;13.40;;
19643;SDS011;9970;-36.854;174.870;2022-11-30T08:57:44;13.70;;;13.50;;
19643;SDS011;9970;-36.854;174.870;2022-11-30T09:00:17;14.40;;;14.20;;
19643;SDS011;9970;-36.854;174.870;2022-11-30T09:02:51;13.80;;;13.60;;
19643;SDS011;9970;-36.854;174.870;2022-11-30T09:05:24;14.70;;;14.50;;
19643;SDS011;9970;-36.854;174.870;2022-11-30T09:07:57;15.47;;;15.17;;
19643;SDS011;9970;-36.854;174.870;2022-11-30T09:10:30;13.67;;;13.47;;
19643;SDS011;9970;-36.854;174.870;2022-11-30T09:13:06;13.50;;;13.30;;
19643;SDS011;9970;-36.854;174.870;2022-11-30T09:15:59;13.23;;;13.03;;
19643;SDS011;9970;-36.854;174.870;2022-11-30T09:18:32;13.10;;;12.90;;
19643;SDS011;9970;-36.854;174.870;2022-11-30T09:21:07;13.80;;;13.60;;
19643;SDS011;9970;-36.854;174.870;2022-11-30T09:23:40;14.00;;;13.80;;
19643;SDS011;9970;-36.854;174.870;2022-11-30T09:26:15;13.70;;;13.50;;
19643;SDS011;9970;-36.854;174.870;2022-11-30T09:28:49;13.30;;;13.10;;
19643;SDS011;9970;-36.854;174.870;2022-11-30T09:31:23;13.57;;;13.37;;
19643;SDS011;9970;-36.854;174.870;2022-11-30T09:33:56;12.80;;;12.60;;
19643;SDS011;9970;-36.854;174.870;2022-11-30T09:36:29;12.87;;;12.67;;
19643;SDS011;9970;-36.854;174.870;2022-11-30T09:39:02;12.63;;;12.50;;
19643;SDS011;9970;-36.854;174.870;2022-11-30T09:50:36;12.50;;;12.40;;
19643;SDS011;9970;-36.854;174.870;2022-11-30T09:52:48;12.07;;;11.97;;
19643;SDS011;9970;-36.854;174.870;2022-11-30T09:55:29;12.70;;;12.50;;
19643;SDS011;9970;-36.854;174.870;2022-11-30T09:58:02;12.60;;;12.50;;
19643;SDS011;9970;-36.854;174.870;2022-11-30T10:00:37;12.50;;;12.40;;
19643;SDS011;9970;-36.854;174.870;2022-11-30T10:03:10;11.10;;;11.00;;
19643;SDS011;9970;-36.854;174.870;2022-11-30T10:05:58;10.80;;;10.70;;
19643;SDS011;9970;-36.854;174.870;2022-11-30T10:08:49;11.00;;;10.90;;
19643;SDS011;9970;-36.854;174.870;2022-11-30T10:16:54;11.30;;;11.20;;
19643;SDS011;9970;-36.854;174.870;2022-11-30T10:19:37;11.70;;;11.60;;
19643;SDS011;9970;-36.854;174.870;2022-11-30T10:22:38;11.30;;;11.20;;
19643;SDS011;9970;-36.854;174.870;2022-11-30T10:25:28;11.37;;;11.27;;
19643;SDS011;9970;-36.854;174.870;2022-11-30T10:28:17;11.53;;;11.43;;
19643;SDS011;9970;-36.854;174.870;2022-11-30T10:30:58;11.60;;;11.50;;
19643;SDS011;9970;-36.854;174.870;2022-11-30T10:33:36;11.20;;;11.10;;
19643;SDS011;9970;-36.854;174.870;2022-11-30T10:36:32;11.17;;;11.07;;
19643;SDS011;9970;-36.854;174.870;2022-11-30T10:39:55;11.80;;;11.70;;
19643;SDS011;9970;-36.854;174.870;2022-11-30T10:41:55;11.90;;;11.80;;
19643;SDS011;9970;-36.854;174.870;2022-11-30T10:44:37;11.80;;;11.70;;
19643;SDS011;9970;-36.854;174.870;2022-11-30T10:49:56;11.60;;;11.50;;
19643;SDS011;9970;-36.854;174.870;2022-11-30T10:52:35;11.43;;;11.33;;
19643;SDS011;9970;-36.854;174.870;2022-11-30T10:55:27;11.70;;;11.60;;
19643;SDS011;9970;-36.854;174.870;2022-11-30T10:58:02;11.80;;;11.70;;
19643;SDS011;9970;-36.854;174.870;2022-11-30T11:00:34;11.50;;;11.40;;
19643;SDS011;9970;-36.854;174.870;2022-11-30T11:03:29;11.70;;;11.60;;
19643;SDS011;9970;-36.854;174.870;2022-11-30T11:05:48;11.40;;;11.30;;
19643;SDS011;9970;-36.854;174.870;2022-11-30T11:08:35;11.40;;;11.30;;
19643;SDS011;9970;-36.854;174.870;2022-11-30T11:11:24;11.60;;;11.50;;
19643;SDS011;9970;-36.854;174.870;2022-11-30T11:14:13;11.50;;;11.40;;
19643;SDS011;9970;-36.854;174.870;2022-11-30T11:16:55;11.80;;;11.70;;
19643;SDS011;9970;-36.854;174.870;2022-11-30T11:19:37;11.83;;;11.73;;
19643;SDS011;9970;-36.854;174.870;2022-11-30T11:25:10;11.90;;;11.80;;
19643;SDS011;9970;-36.854;174.870;2022-11-30T11:27:54;11.70;;;11.60;;
19643;SDS011;9970;-36.854;174.870;2022-11-30T11:30:29;11.80;;;11.70;;
19643;SDS011;9970;-36.854;174.870;2022-11-30T11:35:51;11.17;;;11.07;;
19643;SDS011;9970;-36.854;174.870;2022-11-30T11:38:32;11.20;;;11.10;;
19643;SDS011;9970;-36.854;174.870;2022-11-30T11:41:04;11.00;;;10.90;;
19643;SDS011;9970;-36.854;174.870;2022-11-30T11:46:52;11.00;;;10.90;;
19643;SDS011;9970;-36.854;174.870;2022-11-30T11:49:36;11.10;;;11.00;;
19643;SDS011;9970;-36.854;174.870;2022-11-30T11:54:53;11.20;;;11.10;;
19643;SDS011;9970;-36.854;174.870;2022-11-30T11:57:34;11.00;;;10.90;;
19643;SDS011;9970;-36.854;174.870;2022-11-30T12:00:06;11.00;;;10.90;;
19643;SDS011;9970;-36.854;174.870;2022-11-30T12:03:00;10.40;;;10.30;;
19643;SDS011;9970;-36.854;174.870;2022-11-30T12:05:40;11.00;;;10.90;;
19643;SDS011;9970;-36.854;174.870;2022-11-30T12:11:28;11.20;;;11.10;;
19643;SDS011;9970;-36.854;174.870;2022-11-30T12:14:02;10.90;;;10.80;;
19643;SDS011;9970;-36.854;174.870;2022-11-30T12:16:55;10.60;;;10.50;;
19643;SDS011;9970;-36.854;174.870;2022-11-30T12:19:55;10.23;;;10.13;;
19643;SDS011;9970;-36.854;174.870;2022-11-30T12:28:19;10.20;;;10.10;;
19643;SDS011;9970;-36.854;174.870;2022-11-30T12:31:15;10.80;;;10.70;;
19643;SDS011;9970;-36.854;174.870;2022-11-30T12:33:53;10.70;;;10.60;;
19643;SDS011;9970;-36.854;174.870;2022-11-30T12:36:38;10.63;;;10.53;;
19643;SDS011;9970;-36.854;174.870;2022-11-30T12:39:09;10.20;;;10.10;;
19643;SDS011;9970;-36.854;174.870;2022-11-30T12:41:50;10.70;;;10.60;;
19643;SDS011;9970;-36.854;174.870;2022-11-30T12:44:30;10.60;;;10.50;;
19643;SDS011;9970;-36.854;174.870;2022-11-30T12:52:56;10.50;;;10.40;;
19643;SDS011;9970;-36.854;174.870;2022-11-30T12:58:24;10.60;;;10.50;;
19643;SDS011;9970;-36.854;174.870;2022-11-30T13:06:48;11.20;;;11.10;;
19643;SDS011;9970;-36.854;174.870;2022-11-30T13:09:29;10.50;;;10.40;;
19643;SDS011;9970;-36.854;174.870;2022-11-30T13:12:06;10.60;;;10.50;;
19643;SDS011;9970;-36.854;174.870;2022-11-30T13:14:42;10.30;;;10.20;;
19643;SDS011;9970;-36.854;174.870;2022-11-30T13:17:17;10.60;;;10.50;;
19643;SDS011;9970;-36.854;174.870;2022-11-30T13:19:58;10.20;;;10.10;;
19643;SDS011;9970;-36.854;174.870;2022-11-30T13:22:41;9.80;;;9.70;;
19643;SDS011;9970;-36.854;174.870;2022-11-30T13:25:23;9.90;;;9.80;;
19643;SDS011;9970;-36.854;174.870;2022-11-30T13:28:23;10.00;;;9.90;;
19643;SDS011;9970;-36.854;174.870;2022-11-30T13:31:07;10.40;;;10.30;;
19643;SDS011;9970;-36.854;174.870;2022-11-30T13:33:56;10.80;;;10.70;;
19643;SDS011;9970;-36.854;174.870;2022-11-30T13:42:09;10.20;;;10.10;;
19643;SDS011;9970;-36.854;174.870;2022-11-30T13:44:39;10.00;;;9.90;;
19643;SDS011;9970;-36.854;174.870;2022-11-30T13:50:06;10.90;;;10.80;;
19643;SDS011;9970;-36.854;174.870;2022-11-30T13:58:22;11.20;;;11.10;;
19643;SDS011;9970;-36.854;174.870;2022-11-30T14:01:19;11.13;;;11.03;;
19643;SDS011;9970;-36.854;174.870;2022-11-30T14:06:47;10.70;;;10.60;;
19643;SDS011;9970;-36.854;174.870;2022-11-30T14:18:02;11.40;;;11.30;;
19643;SDS011;9970;-36.854;174.870;2022-11-30T14:29:30;12.30;;;12.20;;
19643;SDS011;9970;-36.854;174.870;2022-11-30T14:32:17;11.60;;;11.50;;
19643;SDS011;9970;-36.854;174.870;2022-11-30T14:35:02;12.10;;;12.00;;
19643;SDS011;9970;-36.854;174.870;2022-11-30T14:37:50;11.80;;;11.70;;
19643;SDS011;9970;-36.854;174.870;2022-11-30T14:40:26;11.83;;;11.73;;
19643;SDS011;9970;-36.854;174.870;2022-11-30T14:43:13;12.00;;;11.90;;
19643;SDS011;9970;-36.854;174.870;2022-11-30T14:46:01;11.80;;;11.70;;
19643;SDS011;9970;-36.854;174.870;2022-11-30T14:48:39;11.83;;;11.73;;
19643;SDS011;9970;-36.854;174.870;2022-11-30T14:51:26;11.83;;;11.73;;
19643;SDS011;9970;-36.854;174.870;2022-11-30T14:54:30;12.30;;;12.20;;
19643;SDS011;9970;-36.854;174.870;2022-11-30T14:57:13;11.80;;;11.70;;
19643;SDS011;9970;-36.854;174.870;2022-11-30T14:59:49;12.30;;;12.20;;
19643;SDS011;9970;-36.854;174.870;2022-11-30T15:02:33;11.90;;;11.80;;
19643;SDS011;9970;-36.854;174.870;2022-11-30T15:05:11;12.40;;;12.30;;
19643;SDS011;9970;-36.854;174.870;2022-11-30T15:08:14;12.37;;;12.27;;
19643;SDS011;9970;-36.854;174.870;2022-11-30T15:11:04;11.40;;;11.30;;
19643;SDS011;9970;-36.854;174.870;2022-11-30T15:13:41;12.60;;;12.50;;
19643;SDS011;9970;-36.854;174.870;2022-11-30T15:16:26;11.97;;;11.87;;
19643;SDS011;9970;-36.854;174.870;2022-11-30T15:19:26;11.90;;;11.80;;
19643;SDS011;9970;-36.854;174.870;2022-11-30T15:22:08;11.80;;;11.70;;
19643;SDS011;9970;-36.854;174.870;2022-11-30T15:25:02;11.33;;;11.23;;
19643;SDS011;9970;-36.854;174.870;2022-11-30T15:27:35;11.50;;;11.40;;
19643;SDS011;9970;-36.854;174.870;2022-11-30T15:30:17;11.90;;;11.80;;
19643;SDS011;9970;-36.854;174.870;2022-11-30T15:32:56;11.80;;;11.70;;
19643;SDS011;9970;-36.854;174.870;2022-11-30T15:35:30;11.90;;;11.80;;
19643;SDS011;9970;-36.854;174.870;2022-11-30T15:38:06;11.70;;;11.60;;
19643;SDS011;9970;-36.854;174.870;2022-11-30T15:40:59;12.60;;;12.50;;
19643;SDS011;9970;-36.854;174.870;2022-11-30T15:43:52;12.00;;;11.90;;
19643;SDS011;9970;-36.854;174.870;2022-11-30T15:46:30;12.40;;;12.30;;
19643;SDS011;9970;-36.854;174.870;2022-11-30T15:49:15;12.30;;;12.20;;
19643;SDS011;9970;-36.854;174.870;2022-11-30T15:54:47;11.83;;;11.73;;
19643;SDS011;9970;-36.854;174.870;2022-11-30T16:00:30;9.50;;;9.40;;
19643;SDS011;9970;-36.854;174.870;2022-11-30T16:03:10;9.80;;;9.70;;
19643;SDS011;9970;-36.854;174.870;2022-11-30T16:06:01;8.80;;;8.70;;
19643;SDS011;9970;-36.854;174.870;2022-11-30T16:08:35;8.70;;;8.60;;
19643;SDS011;9970;-36.854;174.870;2022-11-30T16:11:11;7.90;;;7.90;;
19643;SDS011;9970;-36.854;174.870;2022-11-30T16:13:48;8.50;;;8.40;;
19643;SDS011;9970;-36.854;174.870;2022-11-30T16:16:29;8.50;;;8.40;;
19643;SDS011;9970;-36.854;174.870;2022-11-30T16:19:12;8.37;;;8.27;;
19643;SDS011;9970;-36.854;174.870;2022-11-30T16:21:48;8.90;;;8.80;;
19643;SDS011;9970;-36.854;174.870;2022-11-30T16:24:25;8.40;;;8.30;;
19643;SDS011;9970;-36.854;174.870;2022-11-30T16:26:58;8.50;;;8.40;;
19643;SDS011;9970;-36.854;174.870;2022-11-30T16:29:33;8.33;;;8.23;;
19643;SDS011;9970;-36.854;174.870;2022-11-30T16:32:12;8.40;;;8.30;;
19643;SDS011;9970;-36.854;174.870;2022-11-30T16:34:46;7.97;;;7.90;;
19643;SDS011;9970;-36.854;174.870;2022-11-30T16:37:19;8.50;;;8.40;;
19643;SDS011;9970;-36.854;174.870;2022-11-30T16:39:54;8.83;;;8.73;;
19643;SDS011;9970;-36.854;174.870;2022-11-30T16:45:17;9.60;;;9.50;;
19643;SDS011;9970;-36.854;174.870;2022-11-30T16:47:51;9.70;;;9.60;;
19643;SDS011;9970;-36.854;174.870;2022-11-30T16:50:30;9.07;;;8.97;;
19643;SDS011;9970;-36.854;174.870;2022-11-30T16:53:13;9.17;;;9.07;;